Terminal Aerodrome Forecast
Issued by NWS Atlanta, GA

Home | Current Version | Previous Version | Text Only | Print | Product List | Glossary On
Versions: 1 2 3 4 5 6 7 8 9 10 11 12 13 14 15 16 17 18 19 20 21 22 23 24 25 26 27 28 29 30 31 32 33 34 35 36 37
468
FTUS42 KFFC 141128
TAFATL
TAF
KATL 141128Z 1412/1518 10008KT P6SM SCT120
     FM141600 13009KT P6SM BKN080
     FM150000 12008KT P6SM BKN060
     FM150600 11008KT P6SM BKN030
     FM150900 11008KT P6SM OVC015 PROB30 1509/1515 6SM -DZ BR
      OVC009=

USA.gov is the U.S. government's official web portal to all federal, state and local government web resources and services.